createdAt,value
2023-01-13T00:02:04.754Z,56.81
2023-01-13T00:04:31.036Z,56.85
2023-01-13T00:06:57.276Z,56.91
2023-01-13T00:09:23.514Z,56.96
2023-01-13T00:11:49.759Z,57.16
2023-01-13T00:14:15.996Z,57.08
2023-01-13T00:16:42.232Z,56.46
2023-01-13T00:19:08.467Z,56.67
2023-01-13T00:21:34.699Z,57.72
2023-01-13T00:24:00.951Z,57.52
2023-01-13T00:26:27.227Z,57.98
2023-01-13T00:28:53.457Z,58.11
2023-01-13T00:31:19.730Z,57.85
2023-01-13T00:33:46.102Z,57.83
2023-01-13T00:36:12.360Z,57.22
2023-01-13T00:38:38.621Z,58.20
2023-01-13T00:41:04.854Z,57.68
2023-01-13T00:43:31.097Z,57.80
2023-01-13T00:45:57.335Z,57.53
2023-01-13T00:48:23.595Z,58.32
2023-01-13T00:50:49.858Z,57.91
2023-01-13T00:53:16.087Z,58.23
2023-01-13T00:55:42.327Z,58.03
2023-01-13T00:58:08.566Z,57.92
2023-01-13T01:00:34.864Z,58.19
2023-01-13T01:03:01.130Z,57.80
2023-01-13T01:05:27.356Z,58.40
2023-01-13T01:07:53.602Z,58.53
2023-01-13T01:10:19.836Z,58.79
2023-01-13T01:12:46.123Z,59.51
2023-01-13T01:15:12.366Z,59.70
2023-01-13T01:17:38.623Z,59.93
2023-01-13T01:20:04.858Z,60.32
2023-01-13T01:22:31.094Z,60.32
2023-01-13T01:24:57.334Z,60.22
2023-01-13T01:27:23.575Z,60.19
2023-01-13T01:29:49.804Z,60.69
2023-01-13T01:32:16.048Z,60.23
2023-01-13T01:34:42.278Z,60.70
2023-01-13T01:37:08.529Z,60.28
2023-01-13T01:39:34.781Z,59.89
2023-01-13T01:42:01.019Z,60.99
2023-01-13T01:44:27.352Z,60.06
2023-01-13T01:46:53.666Z,60.88
2023-01-13T01:49:19.930Z,61.10
2023-01-13T01:51:46.168Z,60.53
2023-01-13T01:54:12.423Z,61.11
2023-01-13T01:56:38.654Z,61.03
2023-01-13T01:59:04.884Z,62.10
2023-01-13T02:01:31.207Z,61.24
2023-01-13T02:03:57.525Z,61.03
2023-01-13T02:06:23.775Z,60.25
2023-01-13T02:08:50.003Z,60.61
2023-01-13T02:11:16.241Z,59.74
2023-01-13T02:13:42.482Z,60.73
2023-01-13T02:16:08.770Z,60.71
2023-01-13T02:18:35.035Z,61.05
2023-01-13T02:21:01.269Z,61.19
2023-01-13T02:23:27.502Z,61.74
2023-01-13T02:25:53.739Z,62.80
2023-01-13T02:28:20.121Z,63.17
2023-01-13T02:30:46.370Z,62.85
2023-01-13T02:33:12.604Z,63.10
2023-01-13T02:35:38.846Z,63.10
2023-01-13T02:38:05.078Z,63.48
2023-01-13T02:40:31.339Z,63.61
2023-01-13T02:42:57.578Z,63.67
2023-01-13T02:45:23.880Z,63.23
2023-01-13T02:47:50.146Z,63.64
2023-01-13T02:50:16.402Z,63.45
2023-01-13T02:52:42.650Z,64.15
2023-01-13T02:55:08.881Z,64.22
2023-01-13T02:57:35.116Z,64.05
2023-01-13T03:00:01.385Z,64.18
2023-01-13T03:02:27.710Z,63.92
2023-01-13T03:04:54.027Z,64.00
2023-01-13T03:07:20.294Z,64.04
2023-01-13T03:09:46.552Z,63.73
2023-01-13T03:12:12.823Z,64.21
2023-01-13T03:14:39.114Z,64.96
2023-01-13T03:17:05.385Z,64.41
2023-01-13T03:19:31.670Z,64.94
2023-01-13T03:21:57.924Z,64.86
2023-01-13T03:24:24.176Z,64.84
2023-01-13T03:26:50.436Z,65.37
2023-01-13T03:29:16.731Z,65.37
2023-01-13T03:31:42.992Z,65.63
2023-01-13T03:34:09.234Z,65.32
2023-01-13T03:36:35.487Z,64.89
2023-01-13T03:39:01.767Z,65.80
2023-01-13T03:41:28.037Z,66.37
2023-01-13T03:43:54.280Z,66.20
2023-01-13T03:46:20.572Z,66.56
2023-01-13T03:48:46.847Z,66.48
2023-01-13T03:51:13.112Z,66.62
2023-01-13T03:53:39.377Z,67.21
2023-01-13T03:56:05.636Z,66.81
2023-01-13T03:58:31.881Z,66.25
2023-01-13T04:00:58.211Z,66.42
2023-01-13T04:03:24.607Z,66.54
2023-01-13T04:05:50.846Z,65.80
2023-01-13T04:08:17.123Z,66.28
2023-01-13T04:10:43.401Z,66.93
2023-01-13T04:13:09.685Z,66.78
2023-01-13T04:15:35.968Z,66.36
2023-01-13T04:18:02.268Z,66.64
2023-01-13T04:20:28.528Z,67.30
2023-01-13T04:22:54.787Z,67.56
2023-01-13T04:25:21.054Z,67.76
2023-01-13T04:27:47.303Z,67.67
2023-01-13T04:30:13.565Z,67.72
2023-01-13T04:32:39.887Z,68.75
2023-01-13T04:35:06.236Z,69.18
2023-01-13T04:37:32.499Z,68.58
2023-01-13T04:39:58.743Z,69.02
2023-01-13T04:42:25.095Z,69.96
2023-01-13T04:44:51.353Z,70.48
2023-01-13T04:47:17.595Z,70.84
2023-01-13T04:49:43.849Z,70.83
2023-01-13T04:52:10.113Z,72.05
2023-01-13T04:54:36.389Z,72.02
2023-01-13T04:57:02.651Z,72.15
2023-01-13T04:59:28.896Z,71.56
2023-01-13T05:01:55.217Z,71.45
2023-01-13T05:04:21.525Z,70.95
2023-01-13T05:06:47.775Z,70.82
2023-01-13T05:09:14.041Z,70.87
2023-01-13T05:11:40.322Z,70.73
2023-01-13T05:14:06.672Z,71.34
2023-01-13T05:16:32.928Z,70.79
2023-01-13T05:18:59.191Z,71.00
2023-01-13T05:21:25.465Z,71.39
2023-01-13T05:23:51.720Z,72.29
2023-01-13T05:26:17.998Z,72.46
2023-01-13T05:28:44.273Z,72.66
2023-01-13T05:31:10.571Z,72.37
2023-01-13T05:33:36.845Z,72.15
2023-01-13T05:36:03.142Z,72.22
2023-01-13T05:38:29.392Z,72.99
2023-01-13T05:40:55.635Z,73.15
2023-01-13T05:43:22.010Z,72.84
2023-01-13T05:45:48.335Z,74.04
2023-01-13T05:48:14.604Z,73.62
2023-01-13T05:50:40.868Z,73.61
2023-01-13T05:53:07.107Z,73.27
2023-01-13T05:55:33.369Z,73.82
2023-01-13T05:57:59.605Z,73.80
2023-01-13T06:00:25.849Z,73.63
2023-01-13T06:02:52.088Z,72.97
2023-01-13T06:05:18.349Z,73.62
2023-01-13T06:07:44.594Z,73.23
2023-01-13T06:10:10.830Z,73.22
2023-01-13T06:12:37.094Z,74.00
2023-01-13T06:15:03.352Z,73.46
2023-01-13T06:17:29.615Z,73.63
2023-01-13T06:19:55.881Z,73.74
2023-01-13T06:22:22.167Z,73.68
2023-01-13T06:24:48.411Z,73.49
2023-01-13T06:27:14.676Z,73.32
2023-01-13T06:29:40.931Z,73.95
2023-01-13T06:32:07.168Z,73.74
2023-01-13T06:34:33.421Z,74.55
2023-01-13T06:36:59.684Z,73.77
2023-01-13T06:39:25.939Z,73.49
2023-01-13T06:41:52.199Z,73.15
2023-01-13T06:44:18.473Z,73.66
2023-01-13T06:46:44.759Z,72.52
2023-01-13T06:49:11.027Z,72.36
2023-01-13T06:51:37.293Z,73.21
2023-01-13T06:54:03.553Z,72.45
2023-01-13T06:56:29.812Z,72.16
2023-01-13T06:58:56.050Z,71.88
2023-01-13T07:01:22.425Z,72.48
2023-01-13T07:03:48.733Z,72.74
2023-01-13T07:06:14.970Z,72.03
2023-01-13T07:08:41.197Z,71.72
2023-01-13T07:11:07.437Z,71.90
2023-01-13T07:13:33.968Z,72.02
2023-01-13T07:16:00.344Z,72.13
2023-01-13T07:18:26.637Z,72.20
2023-01-13T07:20:52.870Z,72.41
2023-01-13T07:23:19.100Z,72.48
2023-01-13T07:25:45.336Z,71.86
2023-01-13T07:28:11.587Z,72.66
2023-01-13T07:30:37.843Z,71.74
2023-01-13T07:33:04.082Z,71.67
2023-01-13T07:35:30.328Z,71.19
2023-01-13T07:37:56.570Z,71.51
2023-01-13T07:40:22.813Z,71.23
2023-01-13T07:42:49.066Z,71.55
2023-01-13T07:45:15.313Z,72.21
2023-01-13T07:47:41.554Z,73.00
2023-01-13T07:50:07.809Z,72.93
2023-01-13T07:52:34.047Z,72.70
2023-01-13T07:55:00.309Z,72.33
2023-01-13T07:57:26.569Z,71.82
2023-01-13T07:59:52.831Z,72.37
2023-01-13T08:02:19.259Z,72.51
2023-01-13T08:04:45.580Z,72.87
2023-01-13T08:07:11.934Z,72.28
2023-01-13T08:09:38.161Z,72.35
2023-01-13T08:12:04.424Z,71.75
2023-01-13T08:14:30.707Z,72.28
2023-01-13T08:16:57.043Z,74.34
2023-01-13T08:19:23.288Z,73.96
2023-01-13T08:21:49.542Z,73.86
2023-01-13T08:24:15.815Z,73.62
2023-01-13T08:26:42.092Z,73.28
2023-01-13T08:29:08.349Z,72.82
2023-01-13T08:31:34.587Z,72.94
2023-01-13T08:34:00.845Z,73.18
2023-01-13T08:36:27.077Z,73.39
2023-01-13T08:38:53.342Z,73.25
2023-01-13T08:41:19.601Z,73.37
2023-01-13T08:43:45.859Z,73.15
2023-01-13T08:46:12.137Z,73.29
2023-01-13T08:48:38.431Z,73.76
2023-01-13T08:51:04.686Z,74.35
2023-01-13T08:53:30.949Z,74.35
2023-01-13T08:55:57.228Z,74.02
2023-01-13T08:58:23.483Z,74.01
2023-01-13T09:00:49.742Z,73.65
2023-01-13T09:03:16.011Z,73.38
2023-01-13T09:05:42.251Z,73.03
2023-01-13T09:08:08.525Z,73.63
2023-01-13T09:10:34.773Z,73.33
2023-01-13T09:13:01.031Z,73.10
2023-01-13T09:15:27.364Z,73.10
2023-01-13T09:17:53.637Z,72.93
2023-01-13T09:20:19.893Z,72.77
2023-01-13T09:22:46.186Z,72.97
2023-01-13T09:25:12.480Z,73.34
2023-01-13T09:27:38.734Z,73.13
2023-01-13T09:30:04.985Z,73.55
2023-01-13T09:32:31.249Z,73.06
2023-01-13T09:34:57.499Z,72.32
2023-01-13T09:37:23.758Z,72.52
2023-01-13T09:39:50.018Z,73.10
2023-01-13T09:42:16.262Z,73.40
2023-01-13T09:44:42.532Z,73.16
2023-01-13T09:47:08.778Z,73.25
2023-01-13T09:49:35.040Z,73.11
2023-01-13T09:52:01.301Z,73.53
2023-01-13T09:54:27.545Z,73.69
2023-01-13T09:56:53.786Z,74.50
2023-01-13T09:59:20.051Z,74.80
2023-01-13T10:01:46.296Z,74.97
2023-01-13T10:04:12.545Z,74.53
2023-01-13T10:06:38.787Z,74.46
2023-01-13T10:09:05.047Z,74.50
2023-01-13T10:11:31.304Z,74.68
2023-01-13T10:13:57.562Z,74.12
2023-01-13T10:16:23.905Z,73.59
2023-01-13T10:18:50.184Z,73.75
2023-01-13T10:21:16.429Z,73.29
2023-01-13T10:23:42.699Z,72.55
2023-01-13T10:26:09.012Z,72.71
2023-01-13T10:28:35.326Z,71.99
2023-01-13T10:31:01.666Z,72.14
2023-01-13T10:33:28.146Z,72.13
2023-01-13T10:35:54.441Z,72.22
2023-01-13T10:38:20.680Z,71.50
2023-01-13T10:40:46.920Z,71.58
2023-01-13T10:43:13.165Z,71.70
2023-01-13T10:45:39.418Z,73.34
2023-01-13T10:48:05.676Z,72.71
2023-01-13T10:50:31.922Z,72.74
2023-01-13T10:52:58.177Z,73.33
2023-01-13T10:55:24.426Z,72.47
2023-01-13T10:57:50.673Z,72.52
2023-01-13T11:00:16.937Z,72.20
2023-01-13T11:02:43.208Z,72.96
2023-01-13T11:05:09.564Z,73.30
2023-01-13T11:07:35.873Z,72.44
2023-01-13T11:10:02.124Z,72.76
2023-01-13T11:12:28.390Z,72.95
2023-01-13T11:14:54.629Z,72.86
2023-01-13T11:17:20.880Z,72.77
2023-01-13T11:19:47.128Z,72.39
2023-01-13T11:22:13.366Z,72.60
2023-01-13T11:24:39.627Z,72.91
2023-01-13T11:27:05.875Z,72.61
2023-01-13T11:29:32.149Z,72.60
2023-01-13T11:31:58.392Z,72.54
2023-01-13T11:34:24.649Z,72.62
2023-01-13T11:36:50.914Z,72.15
2023-01-13T11:39:17.175Z,72.27
2023-01-13T11:41:43.450Z,71.89
2023-01-13T11:44:09.704Z,71.41
2023-01-13T11:46:36.014Z,72.77
2023-01-13T11:49:02.316Z,72.82
2023-01-13T11:51:28.582Z,72.88
2023-01-13T11:53:54.835Z,73.55
2023-01-13T11:56:21.092Z,73.30
2023-01-13T11:58:51.197Z,71.39
2023-01-13T12:01:17.727Z,71.86
2023-01-13T12:03:44.039Z,70.77
2023-01-13T12:06:10.309Z,70.93
2023-01-13T12:08:36.791Z,71.12
2023-01-13T12:11:03.101Z,71.49
2023-01-13T12:13:29.359Z,71.76
2023-01-13T12:15:55.603Z,71.86
2023-01-13T12:18:21.865Z,72.24
2023-01-13T12:20:48.105Z,72.51
2023-01-13T12:23:14.355Z,72.41
2023-01-13T12:25:40.592Z,71.75
2023-01-13T12:28:06.867Z,71.45
2023-01-13T12:30:33.148Z,70.92
2023-01-13T12:32:59.407Z,71.18
2023-01-13T12:35:25.668Z,70.61
2023-01-13T12:37:51.929Z,71.06
2023-01-13T12:40:18.189Z,70.84
2023-01-13T12:42:44.425Z,70.24
2023-01-13T12:45:10.670Z,70.13
2023-01-13T12:47:36.924Z,69.78
2023-01-13T12:50:03.196Z,68.73
2023-01-13T12:52:29.441Z,68.38
2023-01-13T12:54:55.693Z,66.75
2023-01-13T12:57:21.934Z,67.61
2023-01-13T12:59:48.189Z,67.72
2023-01-13T13:02:14.612Z,67.68
2023-01-13T13:04:41.048Z,65.25
2023-01-13T13:07:07.288Z,62.58
2023-01-13T13:09:33.527Z,64.91
2023-01-13T13:11:59.792Z,65.72
2023-01-13T13:14:26.049Z,65.22
2023-01-13T13:16:52.388Z,66.22
2023-01-13T13:19:18.798Z,65.45
2023-01-13T13:21:45.068Z,65.73
2023-01-13T13:24:11.334Z,65.39
2023-01-13T13:26:37.583Z,66.35
2023-01-13T13:29:03.938Z,66.98
2023-01-13T13:31:30.186Z,66.39
2023-01-13T13:33:56.446Z,61.99
2023-01-13T13:36:22.697Z,58.21
2023-01-13T13:38:48.937Z,56.90
2023-01-13T13:41:15.214Z,56.11
2023-01-13T13:43:41.462Z,57.16
2023-01-13T13:46:07.763Z,55.77
2023-01-13T13:48:34.053Z,56.63
2023-01-13T13:51:00.292Z,57.87
2023-01-13T13:53:26.529Z,61.72
2023-01-13T13:55:52.770Z,62.67
2023-01-13T13:58:19.010Z,64.07
2023-01-13T14:00:45.265Z,62.14
2023-01-13T14:03:11.538Z,62.21
2023-01-13T14:05:37.801Z,61.08
2023-01-13T14:08:04.022Z,59.70
2023-01-13T14:10:30.288Z,59.97
2023-01-13T14:12:56.664Z,59.33
2023-01-13T14:15:23.843Z,58.76
2023-01-13T14:17:50.128Z,57.08
2023-01-13T14:20:16.388Z,57.56
2023-01-13T14:22:42.631Z,56.96
2023-01-13T14:25:08.890Z,58.17
2023-01-13T14:27:35.461Z,57.02
2023-01-13T14:30:01.709Z,56.85
2023-01-13T14:32:28.079Z,57.06
2023-01-13T14:34:54.312Z,56.85
2023-01-13T14:37:20.537Z,56.67
2023-01-13T14:39:46.775Z,58.15
2023-01-13T14:42:13.008Z,59.75
2023-01-13T14:44:39.280Z,60.51
2023-01-13T14:47:05.518Z,60.83
2023-01-13T14:49:31.769Z,60.13
2023-01-13T14:51:58.023Z,61.26
2023-01-13T14:54:24.381Z,60.97
2023-01-13T14:56:50.626Z,61.30
2023-01-13T14:59:16.857Z,61.02
2023-01-13T15:01:43.228Z,61.83
2023-01-13T15:04:09.543Z,63.00
2023-01-13T15:06:35.790Z,63.94
2023-01-13T15:09:02.046Z,63.86
2023-01-13T15:11:28.327Z,61.89
2023-01-13T15:13:54.598Z,60.11
2023-01-13T15:16:20.960Z,61.04
2023-01-13T15:18:47.253Z,62.25
2023-01-13T15:21:13.489Z,61.56
2023-01-13T15:23:39.732Z,61.50
2023-01-13T15:26:05.994Z,61.92
2023-01-13T15:28:32.273Z,62.51
2023-01-13T15:30:58.542Z,63.14
2023-01-13T15:33:24.879Z,62.56
2023-01-13T15:35:51.121Z,62.72
2023-01-13T15:38:17.396Z,62.34
2023-01-13T15:40:43.653Z,61.20
2023-01-13T15:43:09.882Z,61.17
2023-01-13T15:45:36.134Z,61.26
2023-01-13T15:48:02.385Z,61.79
2023-01-13T15:50:28.786Z,61.19
2023-01-13T15:52:55.074Z,61.41
2023-01-13T15:55:21.309Z,61.12
2023-01-13T15:57:47.568Z,60.40
2023-01-13T16:00:13.835Z,59.63
2023-01-13T16:02:40.101Z,59.59
2023-01-13T16:05:06.361Z,57.56
2023-01-13T16:07:32.621Z,59.31
2023-01-13T16:09:58.874Z,57.94
2023-01-13T16:12:25.115Z,58.94
2023-01-13T16:14:51.377Z,59.72
2023-01-13T16:17:17.642Z,58.78
2023-01-13T16:19:43.918Z,59.34
2023-01-13T16:22:10.155Z,59.35
2023-01-13T16:24:36.393Z,60.86
2023-01-13T16:27:02.628Z,60.17
2023-01-13T16:29:28.965Z,59.18
2023-01-13T16:31:55.232Z,60.02
2023-01-13T16:34:21.498Z,60.41
2023-01-13T16:36:47.755Z,60.44
2023-01-13T16:39:14.009Z,60.58
2023-01-13T16:41:40.268Z,59.19
2023-01-13T16:44:06.528Z,60.47
2023-01-13T16:46:32.798Z,61.16
2023-01-13T16:48:59.063Z,60.90
2023-01-13T16:51:25.351Z,62.13
2023-01-13T16:53:51.627Z,62.28
2023-01-13T16:56:18.755Z,60.11
2023-01-13T16:58:46.273Z,60.36
2023-01-13T17:01:12.570Z,61.03
2023-01-13T17:03:38.867Z,60.50
2023-01-13T17:06:05.152Z,61.43
2023-01-13T17:08:31.394Z,62.16
2023-01-13T17:10:57.640Z,62.47
2023-01-13T17:13:23.899Z,62.59
2023-01-13T17:15:50.141Z,62.38
2023-01-13T17:18:16.373Z,62.22
2023-01-13T17:20:42.612Z,62.34
2023-01-13T17:23:08.891Z,62.32
2023-01-13T17:25:35.179Z,62.45
2023-01-13T17:28:01.468Z,60.15
2023-01-13T17:30:27.738Z,60.01
2023-01-13T17:32:54.033Z,58.30
2023-01-13T17:35:20.327Z,57.92
2023-01-13T17:37:46.607Z,57.90
2023-01-13T17:40:12.905Z,58.22
2023-01-13T17:42:39.189Z,57.85
2023-01-13T17:45:05.435Z,57.58
2023-01-13T17:47:31.669Z,57.49
2023-01-13T17:49:57.934Z,57.74
2023-01-13T17:52:24.193Z,56.27
2023-01-13T17:54:50.450Z,57.32
2023-01-13T17:57:16.693Z,57.27
2023-01-13T17:59:42.927Z,57.26
2023-01-13T18:02:09.309Z,57.14
2023-01-13T18:04:35.634Z,56.74
2023-01-13T18:07:01.877Z,56.61
2023-01-13T18:09:28.122Z,57.20
2023-01-13T18:11:54.379Z,57.78
2023-01-13T18:14:20.629Z,58.82
2023-01-13T18:16:46.986Z,58.93
2023-01-13T18:19:13.240Z,58.27
2023-01-13T18:21:39.477Z,58.10
2023-01-13T18:24:05.721Z,58.55
2023-01-13T18:26:31.978Z,56.83
2023-01-13T18:28:58.247Z,57.78
2023-01-13T18:31:24.520Z,57.22
2023-01-13T18:33:50.812Z,55.96
2023-01-13T18:36:17.050Z,56.72
2023-01-13T18:38:43.296Z,55.30
2023-01-13T18:41:09.527Z,56.42
2023-01-13T18:43:35.759Z,56.04
2023-01-13T18:46:02.046Z,55.36
2023-01-13T18:48:28.304Z,54.54
2023-01-13T18:50:54.546Z,54.62
2023-01-13T18:53:20.804Z,54.67
2023-01-13T18:55:47.047Z,55.37
2023-01-13T18:58:13.301Z,55.05
2023-01-13T19:00:39.564Z,55.06
2023-01-13T19:05:32.080Z,54.27
2023-01-13T19:07:58.336Z,54.96
2023-01-13T19:10:24.590Z,55.77
2023-01-13T19:12:50.852Z,54.85
2023-01-13T19:15:17.134Z,55.87
2023-01-13T19:17:43.372Z,55.57
2023-01-13T19:20:09.626Z,55.69
2023-01-13T19:22:35.878Z,55.76
2023-01-13T19:25:02.173Z,56.44
2023-01-13T19:27:28.405Z,56.40
2023-01-13T19:29:54.655Z,56.88
2023-01-13T19:32:20.901Z,56.09
2023-01-13T19:34:48.376Z,55.79
2023-01-13T19:37:14.631Z,56.16
2023-01-13T19:39:40.871Z,56.52
2023-01-13T19:42:07.127Z,55.92
2023-01-13T19:44:33.361Z,56.47
2023-01-13T19:46:59.600Z,56.09
2023-01-13T19:49:25.823Z,55.82
2023-01-13T19:51:52.063Z,55.92
2023-01-13T19:54:18.323Z,56.08
2023-01-13T19:56:44.564Z,55.85
2023-01-13T19:59:10.808Z,56.05
2023-01-13T20:01:37.096Z,55.83
2023-01-13T20:04:03.406Z,56.05
2023-01-13T20:06:29.659Z,55.84
2023-01-13T20:08:55.926Z,55.93
2023-01-13T20:11:22.177Z,55.80
2023-01-13T20:13:48.411Z,55.73
2023-01-13T20:16:14.681Z,56.00
2023-01-13T20:18:40.970Z,56.31
2023-01-13T20:21:07.239Z,56.99
2023-01-13T20:23:33.490Z,57.44
2023-01-13T20:25:59.726Z,57.55
2023-01-13T20:28:25.987Z,57.92
2023-01-13T20:30:52.276Z,58.01
2023-01-13T20:33:18.506Z,58.11
2023-01-13T20:35:44.750Z,58.73
2023-01-13T20:38:11.010Z,58.30
2023-01-13T20:40:37.243Z,58.43
2023-01-13T20:43:03.492Z,58.13
2023-01-13T20:45:30.772Z,58.19
2023-01-13T20:47:57.003Z,58.58
2023-01-13T20:50:23.339Z,58.38
2023-01-13T20:52:49.589Z,58.05
2023-01-13T20:55:15.828Z,57.47
2023-01-13T20:57:42.121Z,57.01
2023-01-13T21:00:08.388Z,58.30
2023-01-13T21:02:34.647Z,58.68
2023-01-13T21:05:00.920Z,58.29
2023-01-13T21:07:27.165Z,59.39
2023-01-13T21:09:53.398Z,59.62
2023-01-13T21:12:19.638Z,59.44
2023-01-13T21:14:45.893Z,59.63
2023-01-13T21:17:12.127Z,60.18
2023-01-13T21:19:38.369Z,61.12
2023-01-13T21:22:04.616Z,61.80
2023-01-13T21:24:30.880Z,61.62
2023-01-13T21:26:57.141Z,62.03
2023-01-13T21:29:23.375Z,62.30
2023-01-13T21:31:49.670Z,62.15
2023-01-13T21:34:15.936Z,62.94
2023-01-13T21:36:42.200Z,62.88
2023-01-13T21:39:08.459Z,63.34
2023-01-13T21:41:34.709Z,63.23
2023-01-13T21:44:00.981Z,62.45
2023-01-13T21:46:27.289Z,62.66
2023-01-13T21:48:53.532Z,63.09
2023-01-13T21:51:19.762Z,64.21
2023-01-13T21:53:46.011Z,64.16
2023-01-13T21:56:12.427Z,63.69
2023-01-13T21:58:38.716Z,64.78
2023-01-13T22:01:05.080Z,65.63
2023-01-13T22:03:31.360Z,65.81
2023-01-13T22:05:57.631Z,67.25
2023-01-13T22:08:23.877Z,67.03
2023-01-13T22:10:50.140Z,67.51
2023-01-13T22:13:21.575Z,67.56
2023-01-13T22:15:47.861Z,67.01
2023-01-13T22:18:14.112Z,67.29
2023-01-13T22:20:40.367Z,66.37
2023-01-13T22:23:06.610Z,66.85
2023-01-13T22:25:32.850Z,66.48
2023-01-13T22:27:59.095Z,66.16
2023-01-13T22:30:25.343Z,66.01
2023-01-13T22:32:51.602Z,66.27
2023-01-13T22:35:17.862Z,65.76
2023-01-13T22:37:44.111Z,65.51
2023-01-13T22:40:10.369Z,65.62
2023-01-13T22:42:36.609Z,65.65
2023-01-13T22:45:02.860Z,65.51
2023-01-13T22:47:29.103Z,65.44
2023-01-13T22:49:55.340Z,65.30
2023-01-13T22:52:21.587Z,65.54
2023-01-13T22:54:47.839Z,65.30
2023-01-13T22:57:14.394Z,66.17
2023-01-13T22:59:40.663Z,65.71
2023-01-13T23:02:06.919Z,66.39
2023-01-13T23:04:33.306Z,65.73
2023-01-13T23:06:59.586Z,66.03
2023-01-13T23:09:25.839Z,65.92
2023-01-13T23:11:52.107Z,65.70
2023-01-13T23:14:18.372Z,65.53
2023-01-13T23:16:44.666Z,65.20
2023-01-13T23:19:10.931Z,65.13
2023-01-13T23:21:37.173Z,65.04
2023-01-13T23:24:03.442Z,64.65
2023-01-13T23:26:29.691Z,64.54
2023-01-13T23:28:55.927Z,64.15
2023-01-13T23:31:22.183Z,64.03
2023-01-13T23:33:48.466Z,64.59
2023-01-13T23:36:14.727Z,64.35
2023-01-13T23:38:40.981Z,63.78
2023-01-13T23:41:07.244Z,64.12
2023-01-13T23:43:33.491Z,63.59
2023-01-13T23:45:59.762Z,63.12
2023-01-13T23:48:26.023Z,63.52
2023-01-13T23:50:52.313Z,63.66
2023-01-13T23:53:18.558Z,63.21
2023-01-13T23:55:44.818Z,63.02
2023-01-13T23:58:11.057Z,62.84
